createdAt,value
2018-09-14T00:00:09.795Z,13.40
2018-09-14T00:02:38.884Z,13.40
2018-09-14T00:05:07.594Z,13.40
2018-09-14T00:07:36.429Z,13.40
2018-09-14T00:10:05.346Z,13.30
2018-09-14T00:12:34.384Z,13.30
2018-09-14T00:15:02.866Z,13.30
2018-09-14T00:17:31.884Z,13.30
2018-09-14T00:20:00.736Z,13.30
2018-09-14T00:22:29.221Z,13.20
2018-09-14T00:24:57.743Z,13.30
2018-09-14T00:27:26.224Z,13.20
2018-09-14T00:29:54.706Z,13.20
2018-09-14T00:32:23.243Z,13.20
2018-09-14T00:34:51.723Z,13.10
2018-09-14T00:37:20.313Z,13.10
2018-09-14T00:39:48.863Z,13.10
2018-09-14T00:42:17.316Z,13.10
2018-09-14T00:44:45.845Z,13.10
2018-09-14T00:47:14.426Z,13.10
2018-09-14T00:49:42.917Z,13.10
2018-09-14T00:52:11.464Z,13.10
2018-09-14T00:54:40.535Z,13.10
2018-09-14T00:57:09.386Z,13.10
2018-09-14T00:59:37.886Z,13.10
2018-09-14T01:02:06.209Z,13.00
2018-09-14T01:04:34.684Z,13.00
2018-09-14T01:07:03.143Z,13.00
2018-09-14T01:09:31.625Z,13.00
2018-09-14T01:12:00.128Z,13.00
2018-09-14T01:14:29.132Z,13.00
2018-09-14T01:16:58.470Z,13.00
2018-09-14T01:19:27.741Z,13.00
2018-09-14T01:21:56.396Z,13.00
2018-09-14T01:24:24.873Z,13.00
2018-09-14T01:26:53.469Z,12.90
2018-09-14T01:29:22.022Z,12.90
2018-09-14T01:31:50.518Z,12.90
2018-09-14T01:34:19.133Z,12.90
2018-09-14T01:36:47.774Z,12.90
2018-09-14T01:39:16.340Z,12.90
2018-09-14T01:41:44.925Z,12.90
2018-09-14T01:44:13.436Z,12.90
2018-09-14T01:46:42.052Z,12.90
2018-09-14T01:49:10.518Z,12.90
2018-09-14T01:51:39.091Z,12.90
2018-09-14T01:54:07.661Z,12.90
2018-09-14T01:56:36.267Z,12.80
2018-09-14T01:59:04.864Z,12.80
2018-09-14T02:01:33.389Z,12.80
2018-09-14T02:04:01.917Z,12.80
2018-09-14T02:06:30.868Z,12.90
2018-09-14T02:08:59.393Z,12.90
2018-09-14T02:11:28.100Z,12.80
2018-09-14T02:13:56.661Z,12.80
2018-09-14T02:16:25.242Z,12.80
2018-09-14T02:18:54.021Z,12.80
2018-09-14T02:21:22.633Z,12.80
2018-09-14T02:23:51.182Z,12.80
2018-09-14T02:26:19.806Z,12.80
2018-09-14T02:28:48.430Z,12.80
2018-09-14T02:31:17.112Z,12.80
2018-09-14T02:33:45.780Z,12.70
2018-09-14T02:36:14.478Z,12.70
2018-09-14T02:38:43.993Z,12.70
2018-09-14T02:41:12.735Z,12.70
2018-09-14T02:43:42.232Z,12.70
2018-09-14T02:46:10.995Z,12.70
2018-09-14T02:48:39.655Z,12.70
2018-09-14T02:51:08.358Z,12.60
2018-09-14T02:53:37.015Z,12.60
2018-09-14T02:56:05.645Z,12.60
2018-09-14T02:58:34.221Z,12.60
2018-09-14T03:01:03.295Z,12.60
2018-09-14T03:03:31.817Z,12.50
2018-09-14T03:06:01.805Z,12.50
2018-09-14T03:08:30.447Z,12.50
2018-09-14T03:10:59.040Z,12.60
2018-09-14T03:13:27.585Z,12.50
2018-09-14T03:15:56.333Z,12.50
2018-09-14T03:18:25.009Z,12.50
2018-09-14T03:20:53.663Z,12.50
2018-09-14T03:23:22.275Z,12.50
2018-09-14T03:25:50.831Z,12.50
2018-09-14T03:28:19.476Z,12.40
2018-09-14T03:30:48.207Z,12.40
2018-09-14T03:33:16.809Z,12.40
2018-09-14T03:35:45.419Z,12.40
2018-09-14T03:38:13.953Z,12.40
2018-09-14T03:40:42.498Z,12.40
2018-09-14T03:43:11.058Z,12.40
2018-09-14T03:45:39.611Z,12.40
2018-09-14T03:48:08.355Z,12.40
2018-09-14T03:50:36.948Z,12.40
2018-09-14T03:53:05.527Z,12.40
2018-09-14T03:55:34.569Z,12.40
2018-09-14T03:58:03.190Z,12.40
2018-09-14T04:00:31.923Z,12.30
2018-09-14T04:03:00.526Z,12.30
2018-09-14T04:05:29.100Z,12.30
2018-09-14T04:07:57.830Z,12.30
2018-09-14T04:10:26.349Z,12.30
2018-09-14T04:12:55.034Z,12.30
2018-09-14T04:15:23.738Z,12.30
2018-09-14T04:17:52.305Z,12.30
2018-09-14T04:20:20.898Z,12.30
2018-09-14T04:22:49.464Z,12.30
2018-09-14T04:25:18.013Z,12.20
2018-09-14T04:27:46.629Z,12.30
2018-09-14T04:30:15.281Z,12.30
2018-09-14T04:32:43.931Z,12.30
2018-09-14T04:35:12.548Z,12.30
2018-09-14T04:37:41.137Z,12.30
2018-09-14T04:40:09.680Z,12.30
2018-09-14T04:42:38.296Z,12.30
2018-09-14T04:45:06.862Z,12.30
2018-09-14T04:47:35.422Z,12.30
2018-09-14T04:50:06.029Z,12.30
2018-09-14T04:52:34.578Z,12.30
2018-09-14T04:55:03.233Z,12.30
2018-09-14T04:57:32.088Z,12.30
2018-09-14T05:00:00.697Z,12.30
2018-09-14T05:02:29.311Z,12.30
2018-09-14T05:05:04.590Z,12.30
2018-09-14T05:07:33.270Z,12.30
2018-09-14T05:10:02.586Z,12.30
2018-09-14T05:12:31.165Z,12.30
2018-09-14T05:14:59.827Z,12.30
2018-09-14T05:17:28.561Z,12.30
2018-09-14T05:19:57.843Z,12.30
2018-09-14T05:22:26.488Z,12.30
2018-09-14T05:24:55.313Z,12.40
2018-09-14T05:27:23.949Z,12.40
2018-09-14T05:29:52.736Z,12.40
2018-09-14T05:32:21.735Z,12.40
2018-09-14T05:34:50.323Z,12.40
2018-09-14T05:37:18.958Z,12.40
2018-09-14T05:39:47.782Z,12.40
2018-09-14T05:42:16.453Z,12.50
2018-09-14T05:44:45.073Z,12.50
2018-09-14T05:47:13.692Z,12.50
2018-09-14T05:49:42.409Z,12.50
2018-09-14T05:52:11.035Z,12.50
2018-09-14T05:54:39.825Z,12.50
2018-09-14T05:57:08.454Z,12.60
2018-09-14T05:59:37.065Z,12.60
2018-09-14T06:02:05.805Z,12.60
2018-09-14T06:04:34.697Z,12.70
2018-09-14T06:07:03.396Z,12.80
2018-09-14T06:09:31.990Z,12.90
2018-09-14T06:12:00.537Z,13.20
2018-09-14T06:14:29.151Z,13.60
2018-09-14T06:16:57.767Z,13.80
2018-09-14T06:19:26.368Z,13.80
2018-09-14T06:21:55.023Z,13.70
2018-09-14T06:24:23.680Z,13.70
2018-09-14T06:26:52.262Z,13.60
2018-09-14T06:29:20.944Z,13.60
2018-09-14T06:31:50.449Z,13.60
2018-09-14T06:34:19.185Z,13.60
2018-09-14T06:36:47.914Z,13.70
2018-09-14T06:39:16.749Z,13.70
2018-09-14T06:41:45.453Z,13.80
2018-09-14T06:44:14.220Z,13.90
2018-09-14T06:46:43.043Z,14.20
2018-09-14T06:49:11.733Z,14.70
2018-09-14T06:51:41.172Z,15.30
2018-09-14T06:54:10.377Z,15.90
2018-09-14T06:56:39.001Z,16.50
2018-09-14T06:59:07.917Z,17.10
2018-09-14T07:01:36.668Z,17.70
2018-09-14T07:04:05.427Z,18.20
2018-09-14T07:06:34.114Z,18.70
2018-09-14T07:09:02.857Z,19.20
2018-09-14T07:11:31.557Z,19.60
2018-09-14T07:14:00.148Z,20.00
2018-09-14T07:16:28.791Z,20.40
2018-09-14T07:18:57.496Z,20.80
2018-09-14T07:21:26.189Z,21.30
2018-09-14T07:23:54.880Z,21.70
2018-09-14T07:26:23.542Z,22.20
2018-09-14T07:28:52.283Z,22.50
2018-09-14T07:31:20.967Z,22.70
2018-09-14T07:33:50.113Z,22.90
2018-09-14T07:36:18.816Z,23.10
2018-09-14T07:38:47.441Z,23.40
2018-09-14T07:41:16.049Z,23.40
2018-09-14T07:43:44.809Z,22.90
2018-09-14T07:46:13.606Z,22.10
2018-09-14T07:48:42.249Z,21.40
2018-09-14T07:51:10.943Z,20.80
2018-09-14T07:53:39.700Z,20.30
2018-09-14T07:56:08.376Z,20.00
2018-09-14T07:58:37.096Z,19.70
2018-09-14T08:01:05.871Z,19.50
2018-09-14T08:03:34.614Z,19.30
2018-09-14T08:06:03.360Z,19.10
2018-09-14T08:08:32.102Z,19.00
2018-09-14T08:11:00.788Z,19.00
2018-09-14T08:13:29.568Z,19.10
2018-09-14T08:15:58.258Z,19.10
2018-09-14T08:18:27.108Z,19.10
2018-09-14T08:20:55.850Z,19.20
2018-09-14T08:23:24.484Z,19.10
2018-09-14T08:25:53.159Z,19.10
2018-09-14T08:28:21.899Z,19.10
2018-09-14T08:30:50.629Z,19.10
2018-09-14T08:33:19.585Z,19.10
2018-09-14T08:35:48.356Z,19.10
2018-09-14T08:38:17.095Z,19.10
2018-09-14T08:40:45.901Z,19.20
2018-09-14T08:43:14.645Z,19.40
2018-09-14T08:45:43.609Z,19.60
2018-09-14T08:48:12.492Z,19.70
2018-09-14T08:50:41.232Z,19.70
2018-09-14T08:53:10.043Z,19.60
2018-09-14T08:55:38.670Z,19.60
2018-09-14T08:58:07.612Z,19.50
2018-09-14T09:00:36.291Z,19.40
2018-09-14T09:03:05.107Z,19.40
2018-09-14T09:05:33.889Z,19.50
2018-09-14T09:08:02.649Z,19.70
2018-09-14T09:10:31.827Z,19.80
2018-09-14T09:13:00.733Z,19.90
2018-09-14T09:15:29.708Z,19.80
2018-09-14T09:17:58.694Z,19.80
2018-09-14T09:20:27.731Z,19.90
2018-09-14T09:22:57.175Z,20.00
2018-09-14T09:25:26.096Z,20.20
2018-09-14T09:27:54.975Z,20.30
2018-09-14T09:30:24.348Z,20.30
2018-09-14T09:32:53.083Z,20.40
2018-09-14T09:35:21.856Z,20.70
2018-09-14T09:37:50.547Z,21.10
2018-09-14T09:40:19.259Z,21.50
2018-09-14T09:42:47.938Z,21.60
2018-09-14T09:45:16.610Z,21.80
2018-09-14T09:47:45.452Z,22.60
2018-09-14T09:50:14.285Z,23.60
2018-09-14T09:52:43.745Z,24.70
2018-09-14T09:55:13.464Z,25.70
2018-09-14T09:57:45.890Z,26.60
2018-09-14T10:00:20.393Z,27.60
2018-09-14T10:02:55.186Z,28.60
2018-09-14T10:05:28.927Z,29.40
2018-09-14T10:07:57.698Z,30.30
2018-09-14T10:10:26.481Z,31.00
2018-09-14T10:12:55.246Z,31.50
2018-09-14T10:15:23.975Z,32.20
2018-09-14T10:17:52.741Z,32.80
2018-09-14T10:20:21.529Z,33.00
2018-09-14T10:22:50.375Z,32.80
2018-09-14T10:25:19.121Z,33.00
2018-09-14T10:27:47.783Z,33.30
2018-09-14T10:30:16.525Z,32.60
2018-09-14T10:32:45.202Z,32.50
2018-09-14T10:35:14.068Z,32.60
2018-09-14T10:37:42.623Z,32.70
2018-09-14T10:40:11.371Z,32.30
2018-09-14T10:42:40.060Z,32.50
2018-09-14T10:45:08.813Z,31.20
2018-09-14T10:47:37.397Z,30.60
2018-09-14T10:50:06.600Z,30.70
2018-09-14T10:52:35.239Z,31.20
2018-09-14T10:55:03.993Z,30.70
2018-09-14T10:57:32.640Z,29.60
2018-09-14T11:00:01.193Z,29.00
2018-09-14T11:02:29.872Z,29.00
2018-09-14T11:04:58.540Z,29.50
2018-09-14T11:07:27.256Z,29.40
2018-09-14T11:09:55.993Z,28.70
2018-09-14T11:12:24.565Z,28.80
2018-09-14T11:14:53.333Z,29.40
2018-09-14T11:17:22.004Z,29.90
2018-09-14T11:19:50.787Z,29.90
2018-09-14T11:22:19.504Z,29.80
2018-09-14T11:24:48.320Z,29.30
2018-09-14T11:27:16.910Z,28.60
2018-09-14T11:29:46.133Z,28.00
2018-09-14T11:32:14.831Z,27.80
2018-09-14T11:34:43.574Z,28.10
2018-09-14T11:37:12.273Z,27.80
2018-09-14T11:39:40.767Z,28.50
2018-09-14T11:42:09.413Z,29.00
2018-09-14T11:44:38.114Z,28.90
2018-09-14T11:47:06.673Z,28.70
2018-09-14T11:49:35.382Z,28.00
2018-09-14T11:52:04.490Z,27.10
2018-09-14T11:54:33.145Z,26.40
2018-09-14T11:57:01.797Z,26.00
2018-09-14T11:59:30.763Z,25.50
2018-09-14T12:01:59.445Z,25.10
2018-09-14T12:04:28.121Z,24.80
2018-09-14T12:06:56.834Z,24.80
2018-09-14T12:09:25.540Z,24.80
2018-09-14T12:11:54.310Z,24.60
2018-09-14T12:14:22.921Z,24.80
2018-09-14T12:16:51.514Z,24.50
2018-09-14T12:19:20.344Z,24.60
2018-09-14T12:21:49.248Z,24.80
2018-09-14T12:24:18.052Z,25.20
2018-09-14T12:26:46.683Z,25.60
2018-09-14T12:29:15.271Z,25.70
2018-09-14T12:31:43.853Z,25.50
2018-09-14T12:34:12.555Z,25.40
2018-09-14T12:36:41.144Z,25.40
2018-09-14T12:39:10.647Z,25.00
2018-09-14T12:41:39.736Z,24.50
2018-09-14T12:44:08.389Z,24.20
2018-09-14T12:46:37.692Z,23.90
2018-09-14T12:49:06.342Z,23.60
2018-09-14T12:51:35.002Z,23.40
2018-09-14T12:54:03.651Z,23.20
2018-09-14T12:56:32.585Z,22.90
2018-09-14T12:59:01.218Z,22.70
2018-09-14T13:01:30.529Z,22.50
2018-09-14T13:03:59.283Z,22.40
2018-09-14T13:06:27.977Z,22.20
2018-09-14T13:08:56.652Z,22.10
2018-09-14T13:11:25.420Z,21.90
2018-09-14T13:13:54.038Z,21.90
2018-09-14T13:16:22.656Z,21.80
2018-09-14T13:18:51.196Z,21.90
2018-09-14T13:21:19.794Z,22.10
2018-09-14T13:23:49.080Z,22.40
2018-09-14T13:26:17.669Z,23.00
2018-09-14T13:28:46.347Z,23.80
2018-09-14T13:31:15.075Z,24.20
2018-09-14T13:33:43.858Z,24.20
2018-09-14T13:36:12.818Z,23.90
2018-09-14T13:38:41.725Z,23.50
2018-09-14T13:41:10.454Z,23.10
2018-09-14T13:43:39.172Z,22.80
2018-09-14T13:46:07.865Z,22.50
2018-09-14T13:48:36.549Z,22.50
2018-09-14T13:51:05.416Z,23.00
2018-09-14T13:53:34.111Z,23.20
2018-09-14T13:56:02.961Z,23.20
2018-09-14T13:58:31.541Z,23.30
2018-09-14T14:01:00.184Z,23.40
2018-09-14T14:03:28.815Z,23.40
2018-09-14T14:05:58.102Z,23.20
2018-09-14T14:08:26.849Z,23.00
2018-09-14T14:10:55.526Z,22.80
2018-09-14T14:13:24.802Z,22.80
2018-09-14T14:15:53.512Z,22.70
2018-09-14T14:18:22.252Z,22.50
2018-09-14T14:20:50.883Z,22.40
2018-09-14T14:23:19.552Z,22.30
2018-09-14T14:25:48.328Z,22.30
2018-09-14T14:28:17.088Z,22.40
2018-09-14T14:30:45.683Z,22.90
2018-09-14T14:33:14.483Z,23.30
2018-09-14T14:35:43.177Z,23.70
2018-09-14T14:38:11.916Z,24.10
2018-09-14T14:40:40.818Z,24.00
2018-09-14T14:43:09.500Z,24.00
2018-09-14T14:45:38.141Z,23.70
2018-09-14T14:48:06.905Z,23.40
2018-09-14T14:50:35.564Z,23.20
2018-09-14T14:53:04.712Z,23.20
2018-09-14T14:55:33.573Z,23.20
2018-09-14T14:58:02.210Z,23.00
2018-09-14T15:00:30.891Z,22.60
2018-09-14T15:02:59.555Z,22.20
2018-09-14T15:05:28.203Z,21.80
2018-09-14T15:07:56.805Z,21.60
2018-09-14T15:10:25.491Z,21.30
2018-09-14T15:12:54.085Z,21.10
2018-09-14T15:15:22.779Z,20.90
2018-09-14T15:17:51.437Z,20.70
2018-09-14T15:20:20.110Z,20.50
2018-09-14T15:22:55.079Z,20.40
2018-09-14T15:25:23.696Z,20.30
2018-09-14T15:27:52.436Z,20.30
2018-09-14T15:30:21.344Z,20.40
2018-09-14T15:32:50.087Z,20.40
2018-09-14T15:35:19.045Z,20.50
2018-09-14T15:37:48.799Z,20.60
2018-09-14T15:40:17.616Z,20.50
2018-09-14T15:42:46.378Z,20.40
2018-09-14T15:45:15.039Z,20.30
2018-09-14T15:47:43.675Z,20.30
2018-09-14T15:50:12.218Z,20.30
2018-09-14T15:52:40.979Z,20.20
2018-09-14T15:55:10.431Z,20.00
2018-09-14T15:57:39.222Z,20.00
2018-09-14T16:00:07.857Z,20.00
2018-09-14T16:02:36.507Z,20.00
2018-09-14T16:05:05.121Z,20.00
2018-09-14T16:07:33.870Z,19.90
2018-09-14T16:10:02.582Z,19.90
2018-09-14T16:12:31.282Z,19.80
2018-09-14T16:14:59.902Z,19.80
2018-09-14T16:17:28.519Z,19.70
2018-09-14T16:19:57.154Z,19.70
2018-09-14T16:22:26.517Z,19.60
2018-09-14T16:24:55.191Z,19.50
2018-09-14T16:27:24.017Z,19.50
2018-09-14T16:29:52.666Z,19.40
2018-09-14T16:32:21.393Z,19.40
2018-09-14T16:34:50.102Z,19.30
2018-09-14T16:37:18.911Z,19.20
2018-09-14T16:39:48.649Z,19.20
2018-09-14T16:42:19.307Z,19.20
2018-09-14T16:44:48.026Z,19.20
2018-09-14T16:47:16.788Z,19.20
2018-09-14T16:49:45.458Z,19.20
2018-09-14T16:52:14.049Z,19.20
2018-09-14T16:54:42.637Z,19.20
2018-09-14T16:57:11.245Z,19.10
2018-09-14T16:59:39.904Z,19.10
2018-09-14T17:02:08.805Z,19.10
2018-09-14T17:04:37.482Z,19.00
2018-09-14T17:07:06.290Z,18.90
2018-09-14T17:09:35.596Z,18.90
2018-09-14T17:12:04.245Z,18.90
2018-09-14T17:14:33.073Z,18.90
2018-09-14T17:17:01.663Z,18.90
2018-09-14T17:19:30.303Z,18.80
2018-09-14T17:21:59.046Z,18.80
2018-09-14T17:24:29.408Z,18.80
2018-09-14T17:26:58.327Z,18.80
2018-09-14T17:29:27.065Z,18.70
2018-09-14T17:31:55.901Z,18.70
2018-09-14T17:34:24.753Z,18.60
2018-09-14T17:36:53.414Z,18.50
2018-09-14T17:39:22.832Z,18.50
2018-09-14T17:41:51.682Z,18.40
2018-09-14T17:44:20.447Z,18.30
2018-09-14T17:46:49.318Z,18.20
2018-09-14T17:49:18.002Z,18.20
2018-09-14T17:51:47.036Z,18.20
2018-09-14T17:54:16.091Z,18.10
2018-09-14T17:56:44.792Z,18.10
2018-09-14T17:59:13.776Z,18.10
2018-09-14T18:01:42.582Z,18.00
2018-09-14T18:04:11.324Z,18.10
2018-09-14T18:06:40.157Z,18.00
2018-09-14T18:09:10.477Z,18.00
2018-09-14T18:11:39.611Z,18.00
2018-09-14T18:14:08.268Z,18.00
2018-09-14T18:16:36.970Z,17.90
2018-09-14T18:19:06.261Z,17.90
2018-09-14T18:21:35.547Z,17.90
2018-09-14T18:24:04.397Z,18.10
2018-09-14T18:26:33.158Z,18.10
2018-09-14T18:29:01.848Z,18.20
2018-09-14T18:31:30.597Z,18.10
2018-09-14T18:33:59.237Z,17.90
2018-09-14T18:36:28.048Z,17.80
2018-09-14T18:38:56.872Z,17.80
2018-09-14T18:41:25.628Z,17.70
2018-09-14T18:43:54.562Z,17.70
2018-09-14T18:46:23.265Z,17.60
2018-09-14T18:48:52.039Z,17.60
2018-09-14T18:51:20.989Z,17.60
2018-09-14T18:53:49.767Z,17.60
2018-09-14T18:56:18.490Z,17.50
2018-09-14T18:58:47.256Z,17.60
2018-09-14T19:01:15.931Z,17.60
2018-09-14T19:03:44.629Z,17.50
2018-09-14T19:06:13.382Z,17.50
2018-09-14T19:08:42.013Z,17.50
2018-09-14T19:11:11.280Z,17.50
2018-09-14T19:13:39.977Z,17.40
2018-09-14T19:16:08.662Z,17.40
2018-09-14T19:18:37.406Z,17.40
2018-09-14T19:21:10.689Z,17.50
2018-09-14T19:23:39.381Z,17.40
2018-09-14T19:26:08.887Z,17.40
2018-09-14T19:28:37.622Z,17.40
2018-09-14T19:31:06.788Z,17.30
2018-09-14T19:33:35.440Z,17.30
2018-09-14T19:36:04.307Z,17.30
2018-09-14T19:38:33.048Z,17.30
2018-09-14T19:41:01.639Z,17.30
2018-09-14T19:43:30.365Z,17.40
2018-09-14T19:45:58.959Z,17.40
2018-09-14T19:48:27.661Z,17.50
2018-09-14T19:50:56.309Z,17.50
2018-09-14T19:53:24.976Z,17.60
2018-09-14T19:55:53.601Z,17.50
2018-09-14T19:58:22.306Z,17.30
2018-09-14T20:00:50.932Z,17.20
2018-09-14T20:03:20.213Z,17.00
2018-09-14T20:05:48.821Z,16.90
2018-09-14T20:08:17.448Z,16.90
2018-09-14T20:10:46.235Z,16.80
2018-09-14T20:13:14.836Z,16.70
2018-09-14T20:15:43.498Z,16.70
2018-09-14T20:18:12.308Z,16.70
2018-09-14T20:20:46.936Z,16.70
2018-09-14T20:23:15.768Z,16.70
2018-09-14T20:25:44.445Z,16.80
2018-09-14T20:28:13.023Z,16.80
2018-09-14T20:30:41.601Z,16.80
2018-09-14T20:33:10.215Z,16.70
2018-09-14T20:35:38.913Z,16.80
2018-09-14T20:38:07.567Z,16.80
2018-09-14T20:40:36.257Z,16.80
2018-09-14T20:43:04.918Z,16.80
2018-09-14T20:45:33.787Z,16.80
2018-09-14T20:48:02.375Z,16.80
2018-09-14T20:50:31.017Z,16.80
2018-09-14T20:53:00.508Z,16.80
2018-09-14T20:55:29.237Z,16.70
2018-09-14T20:57:57.920Z,16.70
2018-09-14T21:00:27.176Z,16.70
2018-09-14T21:03:03.378Z,16.60
2018-09-14T21:05:32.427Z,16.50
2018-09-14T21:08:01.160Z,16.50
2018-09-14T21:10:29.830Z,16.50
2018-09-14T21:12:58.862Z,16.40
2018-09-14T21:15:27.518Z,16.30
2018-09-14T21:17:56.469Z,16.30
2018-09-14T21:20:25.178Z,16.20
2018-09-14T21:22:53.876Z,16.20
2018-09-14T21:25:22.545Z,16.20
2018-09-14T21:27:51.379Z,16.20
2018-09-14T21:30:20.029Z,16.10
2018-09-14T21:32:48.698Z,16.10
2018-09-14T21:35:18.098Z,16.10
2018-09-14T21:37:46.796Z,16.10
2018-09-14T21:40:16.723Z,16.10
2018-09-14T21:42:46.205Z,16.10
2018-09-14T21:45:15.013Z,16.10
2018-09-14T21:47:44.673Z,16.10
2018-09-14T21:50:13.596Z,16.10
2018-09-14T21:52:45.105Z,16.10
2018-09-14T21:55:14.574Z,16.10
2018-09-14T21:57:44.077Z,16.10
2018-09-14T22:00:18.074Z,16.20
2018-09-14T22:02:46.768Z,16.30
2018-09-14T22:05:15.370Z,16.30
2018-09-14T22:07:44.024Z,16.40
2018-09-14T22:10:12.681Z,16.40
2018-09-14T22:12:41.320Z,16.50
2018-09-14T22:15:10.159Z,16.60
2018-09-14T22:17:38.782Z,16.70
2018-09-14T22:20:08.535Z,16.80
2018-09-14T22:22:37.202Z,16.90
2018-09-14T22:25:05.788Z,16.90
2018-09-14T22:27:34.863Z,17.00
2018-09-14T22:30:03.669Z,17.10
2018-09-14T22:32:32.354Z,17.20
2018-09-14T22:35:01.084Z,17.30
2018-09-14T22:37:29.848Z,17.30
2018-09-14T22:39:58.486Z,17.30
2018-09-14T22:42:27.261Z,17.40
2018-09-14T22:44:56.002Z,17.40
2018-09-14T22:47:24.613Z,17.50
2018-09-14T22:49:53.164Z,17.50
2018-09-14T22:52:22.004Z,17.50
2018-09-14T22:54:50.721Z,17.50
2018-09-14T22:57:19.321Z,17.50
2018-09-14T22:59:47.922Z,17.50
2018-09-14T23:02:16.581Z,17.50
2018-09-14T23:04:45.300Z,17.60
2018-09-14T23:07:13.919Z,17.50
2018-09-14T23:09:42.584Z,17.60
2018-09-14T23:12:11.279Z,17.60
2018-09-14T23:14:39.868Z,17.60
2018-09-14T23:17:08.482Z,17.60
2018-09-14T23:19:37.119Z,17.70
2018-09-14T23:22:06.278Z,17.70
2018-09-14T23:24:34.947Z,17.80
2018-09-14T23:27:03.672Z,17.70
2018-09-14T23:29:32.253Z,17.80
2018-09-14T23:35:14.914Z,17.80
2018-09-14T23:37:43.704Z,17.90
2018-09-14T23:40:12.400Z,17.80
2018-09-14T23:42:41.187Z,17.90
2018-09-14T23:45:09.791Z,17.80
2018-09-14T23:47:38.383Z,17.80
2018-09-14T23:50:06.983Z,17.80
2018-09-14T23:52:35.528Z,17.80
2018-09-14T23:55:04.213Z,17.80
2018-09-14T23:57:32.896Z,17.70
